Airport View

Enter AWOS ICAO identifier for current METAR.

ex. KFNL

KBJC 111945Z 00000KT 10SM BKN220 07/M07 A2997

11 Dec 2019 21:52

Frequency: 126.250

Phone: 720-887-8067

Other Area AWOS: KEIK - KBDU - KLMO - KBKF

TAF KBJC 111750Z 1118/1218 VRB06KT P6SM FEW150 BKN220 FM112000 01006KT P6SM SCT150 BKN220 FM120100 29010KT P6SM SCT100 BKN150 FM120800 25006KT P6SM SCT150